ΕΜΥ, Εθνική Μετεωρολογική Υπηρεσία - Δελτία Καιρού, Προγνώσεις

ΑΕΡΟΝΑΥΤΙΛΙΑ

GREEK AIRPORTS CODES

EUROPEAN AIRPORTS CODES

EHAM 292155Z 23007KT 200V260 CAVOK 14/13 Q1006 NOSIG=